createdAt,value
2023-04-20T00:02:51.633Z,100326.91
2023-04-20T00:05:55.156Z,100327.50
2023-04-20T00:08:57.660Z,100325.28
2023-04-20T00:12:00.669Z,100324.66
2023-04-20T00:15:03.361Z,100318.78
2023-04-20T00:18:06.601Z,100322.72
2023-04-20T00:21:09.340Z,100328.84
2023-04-20T00:24:12.421Z,100334.47
2023-04-20T00:27:14.838Z,100319.19
2023-04-20T00:30:17.930Z,100317.22
2023-04-20T00:33:20.536Z,100325.75
2023-04-20T00:36:23.242Z,100329.13
2023-04-20T00:39:27.264Z,100319.19
2023-04-20T00:42:31.027Z,100320.03
2023-04-20T00:45:33.422Z,100320.25
2023-04-20T00:48:36.417Z,100323.34
2023-04-20T00:51:39.835Z,100318.34
2023-04-20T00:54:42.934Z,100308.03
2023-04-20T00:57:45.682Z,100318.25
2023-04-20T01:00:48.500Z,100311.16
2023-04-20T01:03:54.199Z,100306.16
2023-04-20T01:06:57.357Z,100312.03
2023-04-20T01:09:59.927Z,100301.13
2023-04-20T01:13:03.773Z,100302.50
2023-04-20T01:16:06.472Z,100311.06
2023-04-20T01:19:09.321Z,100305.66
2023-04-20T01:22:18.334Z,100295.47
2023-04-20T01:25:21.263Z,100290.88
2023-04-20T01:28:24.270Z,100309.97
2023-04-20T01:31:27.851Z,100313.06
2023-04-20T01:34:30.697Z,100303.16
2023-04-20T01:37:33.650Z,100306.59
2023-04-20T01:40:39.418Z,100312.59
2023-04-20T01:43:42.543Z,100306.22
2023-04-20T01:46:47.181Z,100305.94
2023-04-20T01:49:50.097Z,100306.59
2023-04-20T01:52:54.069Z,100300.25
2023-04-20T01:55:56.972Z,100308.66
2023-04-20T01:58:59.874Z,100300.94
2023-04-20T02:02:03.344Z,100308.28
2023-04-20T02:05:09.159Z,100303.50
2023-04-20T02:08:12.170Z,100306.28
2023-04-20T02:11:15.487Z,100311.91
2023-04-20T02:14:18.090Z,100300.59
2023-04-20T02:17:21.013Z,100307.34
2023-04-20T02:20:24.436Z,100303.97
2023-04-20T02:23:27.307Z,100303.47
2023-04-20T02:26:31.447Z,100310.72
2023-04-20T02:29:35.969Z,100307.72
2023-04-20T02:32:39.449Z,100316.50
2023-04-20T02:35:42.178Z,100313.16
2023-04-20T02:38:47.414Z,100326.84
2023-04-20T02:41:50.408Z,100318.06
2023-04-20T02:44:53.823Z,100318.53
2023-04-20T02:47:57.382Z,100312.00
2023-04-20T02:51:01.431Z,100310.13
2023-04-20T02:54:09.465Z,100317.28
2023-04-20T02:57:12.601Z,100324.53
2023-04-20T03:00:15.713Z,100323.75
2023-04-20T03:03:33.747Z,100329.47
2023-04-20T03:06:38.690Z,100327.91
2023-04-20T03:09:42.775Z,100325.19
2023-04-20T03:12:54.189Z,100322.47
2023-04-20T03:16:20.294Z,100323.97
2023-04-20T03:19:26.433Z,100318.97
2023-04-20T03:22:29.621Z,100318.88
2023-04-20T03:25:34.829Z,100321.13
2023-04-20T03:28:51.497Z,100322.47
2023-04-20T03:31:58.194Z,100316.03
2023-04-20T03:35:00.950Z,100321.03
2023-04-20T03:38:04.192Z,100319.38
2023-04-20T03:41:08.392Z,100325.19
2023-04-20T03:44:11.358Z,100327.97
2023-04-20T03:47:13.998Z,100330.34
2023-04-20T03:50:17.639Z,100334.72
2023-04-20T03:53:20.237Z,100341.13
2023-04-20T03:56:23.110Z,100345.59
2023-04-20T03:59:26.843Z,100343.44
2023-04-20T04:02:31.362Z,100336.41
2023-04-20T04:05:34.582Z,100338.78
2023-04-20T04:08:37.416Z,100339.22
2023-04-20T04:11:41.087Z,100338.09
2023-04-20T04:14:43.907Z,100337.06
2023-04-20T04:17:49.250Z,100342.03
2023-04-20T04:20:52.260Z,100335.50
2023-04-20T04:23:56.703Z,100337.72
2023-04-20T04:27:25.498Z,100338.00
2023-04-20T04:30:32.044Z,100350.34
2023-04-20T04:33:34.953Z,100349.94
2023-04-20T04:36:38.487Z,100359.00
2023-04-20T04:39:43.709Z,100345.81
2023-04-20T04:42:55.772Z,100349.13
2023-04-20T04:45:58.626Z,100342.03
2023-04-20T04:49:03.124Z,100348.72
2023-04-20T04:52:05.738Z,100355.03
2023-04-20T04:55:09.400Z,100351.47
2023-04-20T04:58:16.073Z,100354.00
2023-04-20T05:01:19.223Z,100350.19
2023-04-20T05:04:21.928Z,100358.66
2023-04-20T05:07:24.913Z,100373.66
2023-04-20T05:10:27.600Z,100376.69
2023-04-20T05:13:30.554Z,100377.06
2023-04-20T05:16:33.150Z,100377.38
2023-04-20T05:19:35.938Z,100375.97
2023-04-20T05:23:16.794Z,100374.41
2023-04-20T05:26:20.385Z,100369.31
2023-04-20T05:29:22.806Z,100377.44
2023-04-20T05:32:25.541Z,100374.50
2023-04-20T05:35:27.975Z,100379.47
2023-04-20T05:38:30.586Z,100377.94
2023-04-20T05:41:32.981Z,100376.81
2023-04-20T05:44:36.669Z,100378.28
2023-04-20T05:47:39.174Z,100375.91
2023-04-20T05:50:42.497Z,100378.47
2023-04-20T05:53:45.013Z,100387.69
2023-04-20T05:56:47.679Z,100382.41
2023-04-20T05:59:50.665Z,100378.13
2023-04-20T06:02:54.670Z,100383.81
2023-04-20T06:05:57.469Z,100393.94
2023-04-20T06:09:00.329Z,100388.84
2023-04-20T06:12:02.870Z,100379.81
2023-04-20T06:15:08.536Z,100381.25
2023-04-20T06:18:11.173Z,100379.94
2023-04-20T06:21:13.888Z,100396.22
2023-04-20T06:24:16.406Z,100388.19
2023-04-20T06:27:18.919Z,100391.03
2023-04-20T06:30:21.667Z,100388.59
2023-04-20T06:33:24.260Z,100381.56
2023-04-20T06:36:27.786Z,100379.09
2023-04-20T06:39:30.746Z,100377.53
2023-04-20T06:42:33.223Z,100382.19
2023-04-20T06:45:35.836Z,100379.94
2023-04-20T06:48:38.287Z,100379.94
2023-04-20T06:51:40.948Z,100376.75
2023-04-20T06:54:43.535Z,100389.25
2023-04-20T06:57:46.137Z,100380.06
2023-04-20T07:00:48.667Z,100378.09
2023-04-20T07:03:52.511Z,100379.47
2023-04-20T07:06:55.097Z,100385.63
2023-04-20T07:09:57.790Z,100380.97
2023-04-20T07:13:00.367Z,100377.28
2023-04-20T07:16:03.222Z,100383.69
2023-04-20T07:19:05.684Z,100395.41
2023-04-20T07:22:08.526Z,100389.28
2023-04-20T07:25:11.614Z,100388.06
2023-04-20T07:28:14.423Z,100383.88
2023-04-20T07:31:17.115Z,100389.53
2023-04-20T07:34:20.133Z,100387.16
2023-04-20T07:37:23.246Z,100388.16
2023-04-20T07:40:26.858Z,100379.16
2023-04-20T07:43:29.275Z,100378.59
2023-04-20T07:46:31.936Z,100387.50
2023-04-20T07:49:41.004Z,100376.47
2023-04-20T07:52:46.608Z,100380.72
2023-04-20T07:55:51.020Z,100366.75
2023-04-20T07:58:53.828Z,100363.09
2023-04-20T08:02:01.701Z,100362.72
2023-04-20T08:05:05.230Z,100366.00
2023-04-20T08:08:07.977Z,100356.19
2023-04-20T08:11:12.693Z,100367.81
2023-04-20T08:14:16.025Z,100358.63
2023-04-20T08:17:18.753Z,100363.25
2023-04-20T08:20:21.652Z,100364.28
2023-04-20T08:23:28.154Z,100362.47
2023-04-20T08:26:31.760Z,100363.25
2023-04-20T08:29:34.381Z,100360.59
2023-04-20T08:32:37.063Z,100358.19
2023-04-20T08:35:39.769Z,100362.16
2023-04-20T08:38:43.262Z,100352.47
2023-04-20T08:41:46.960Z,100358.72
2023-04-20T08:44:54.570Z,100356.34
2023-04-20T08:47:59.172Z,100354.72
2023-04-20T08:51:04.106Z,100357.53
2023-04-20T08:54:07.116Z,100354.03
2023-04-20T08:57:10.138Z,100353.97
2023-04-20T09:00:14.101Z,100349.63
2023-04-20T09:03:17.515Z,100352.94
2023-04-20T09:06:22.864Z,100350.91
2023-04-20T09:09:27.144Z,100354.75
2023-04-20T09:12:41.278Z,100344.44
2023-04-20T09:15:44.085Z,100345.19
2023-04-20T09:18:56.904Z,100345.81
2023-04-20T09:22:03.878Z,100346.72
2023-04-20T09:25:16.402Z,100336.41
2023-04-20T09:28:19.813Z,100344.94
2023-04-20T09:31:23.110Z,100344.75
2023-04-20T09:34:25.934Z,100346.34
2023-04-20T09:37:42.289Z,100341.84
2023-04-20T09:40:45.018Z,100337.13
2023-04-20T09:43:48.020Z,100335.31
2023-04-20T09:46:54.331Z,100341.91
2023-04-20T09:50:00.115Z,100329.53
2023-04-20T09:53:03.546Z,100337.38
2023-04-20T09:56:07.106Z,100338.44
2023-04-20T09:59:09.776Z,100343.97
2023-04-20T10:02:13.316Z,100333.88
2023-04-20T10:05:17.054Z,100328.06
2023-04-20T10:08:20.508Z,100320.53
2023-04-20T10:11:49.152Z,100326.53
2023-04-20T10:14:57.866Z,100310.69
2023-04-20T10:18:00.581Z,100315.34
2023-04-20T10:21:09.554Z,100311.97
2023-04-20T10:24:12.301Z,100316.81
2023-04-20T10:27:19.561Z,100324.38
2023-04-20T10:30:23.870Z,100319.88
2023-04-20T10:33:26.485Z,100315.69
2023-04-20T10:36:31.394Z,100305.13
2023-04-20T10:39:34.796Z,100308.94
2023-04-20T10:42:44.347Z,100298.38
2023-04-20T10:45:47.694Z,100301.38
2023-04-20T10:48:57.640Z,100304.00
2023-04-20T10:52:00.282Z,100302.63
2023-04-20T10:55:03.761Z,100303.97
2023-04-20T10:58:06.795Z,100289.34
2023-04-20T11:01:09.987Z,100293.97
2023-04-20T11:04:13.088Z,100295.03
2023-04-20T11:07:17.839Z,100296.56
2023-04-20T11:10:24.987Z,100281.91
2023-04-20T11:13:29.251Z,100287.75
2023-04-20T11:16:44.309Z,100287.56
2023-04-20T11:19:50.706Z,100284.72
2023-04-20T11:23:00.559Z,100282.44
2023-04-20T11:26:03.063Z,100277.63
2023-04-20T11:29:05.600Z,100285.41
2023-04-20T11:32:10.402Z,100282.94
2023-04-20T11:35:13.580Z,100278.63
2023-04-20T11:38:27.683Z,100281.94
2023-04-20T11:41:30.221Z,100296.66
2023-04-20T11:44:33.240Z,100287.75
2023-04-20T11:47:35.826Z,100274.19
2023-04-20T11:50:39.793Z,100279.63
2023-04-20T11:53:44.565Z,100281.91
2023-04-20T11:56:47.394Z,100274.94
2023-04-20T11:59:50.102Z,100285.91
2023-04-20T12:02:52.668Z,100280.16
2023-04-20T12:05:55.530Z,100277.28
2023-04-20T12:08:59.541Z,100266.22
2023-04-20T12:12:02.617Z,100274.25
2023-04-20T12:15:05.678Z,100271.91
2023-04-20T12:18:08.444Z,100267.19
2023-04-20T12:21:11.432Z,100270.44
2023-04-20T12:24:14.360Z,100261.66
2023-04-20T12:27:17.006Z,100265.34
2023-04-20T12:30:19.577Z,100255.78
2023-04-20T12:33:22.212Z,100262.59
2023-04-20T12:36:24.769Z,100260.66
2023-04-20T12:39:27.353Z,100260.84
2023-04-20T12:42:30.285Z,100258.50
2023-04-20T12:45:34.065Z,100251.41
2023-04-20T12:48:36.630Z,100257.56
2023-04-20T12:51:39.371Z,100255.69
2023-04-20T12:54:44.096Z,100252.31
2023-04-20T12:57:47.080Z,100255.63
2023-04-20T13:00:49.810Z,100252.22
2023-04-20T13:03:52.793Z,100244.69
2023-04-20T13:06:55.816Z,100249.25
2023-04-20T13:09:58.748Z,100254.06
2023-04-20T13:13:01.900Z,100247.84
2023-04-20T13:16:04.825Z,100243.44
2023-04-20T13:19:07.986Z,100254.94
2023-04-20T13:22:12.953Z,100240.22
2023-04-20T13:25:17.873Z,100247.94
2023-04-20T13:28:20.514Z,100246.06
2023-04-20T13:31:23.216Z,100242.91
2023-04-20T13:34:25.958Z,100249.91
2023-04-20T13:37:28.665Z,100242.25
2023-04-20T13:40:31.519Z,100239.88
2023-04-20T13:43:34.228Z,100245.13
2023-04-20T13:46:36.758Z,100242.53
2023-04-20T13:49:39.285Z,100241.03
2023-04-20T13:52:42.073Z,100244.69
2023-04-20T13:55:44.857Z,100245.19
2023-04-20T13:58:47.437Z,100239.84
2023-04-20T14:01:50.212Z,100241.38
2023-04-20T14:04:53.281Z,100238.66
2023-04-20T14:07:56.099Z,100234.28
2023-04-20T14:10:58.697Z,100244.69
2023-04-20T14:14:01.426Z,100236.66
2023-04-20T14:17:04.328Z,100231.56
2023-04-20T14:20:07.961Z,100231.03
2023-04-20T14:23:10.772Z,100236.63
2023-04-20T14:26:13.425Z,100232.97
2023-04-20T14:29:16.203Z,100237.81
2023-04-20T14:32:19.698Z,100238.84
2023-04-20T14:35:23.024Z,100232.38
2023-04-20T14:38:25.733Z,100233.44
2023-04-20T14:45:06.445Z,100224.22
2023-04-20T14:48:08.945Z,100230.91
2023-04-20T14:51:12.243Z,100238.28
2023-04-20T14:54:15.064Z,100237.59
2023-04-20T14:57:17.832Z,100229.16
2023-04-20T15:00:23.451Z,100226.84
2023-04-20T15:03:26.249Z,100231.81
2023-04-20T15:06:29.274Z,100232.81
2023-04-20T15:09:32.970Z,100238.59
2023-04-20T15:12:35.633Z,100232.88
2023-04-20T15:15:48.376Z,100240.97
2023-04-20T15:18:53.121Z,100236.34
2023-04-20T15:21:56.227Z,100237.50
2023-04-20T15:24:58.618Z,100239.34
2023-04-20T15:28:01.274Z,100248.47
2023-04-20T15:31:07.096Z,100244.22
2023-04-20T15:34:11.401Z,100237.91
2023-04-20T15:37:13.857Z,100236.84
2023-04-20T15:40:18.059Z,100245.13
2023-04-20T15:43:20.538Z,100233.72
2023-04-20T15:46:25.977Z,100247.81
2023-04-20T15:49:28.605Z,100241.72
2023-04-20T15:52:31.909Z,100235.06
2023-04-20T15:55:38.246Z,100240.41
2023-04-20T15:58:42.071Z,100247.81
2023-04-20T16:01:44.700Z,100241.69
2023-04-20T16:04:47.735Z,100238.97
2023-04-20T16:07:50.811Z,100246.78
2023-04-20T16:11:07.307Z,100247.78
2023-04-20T16:14:09.931Z,100246.88
2023-04-20T16:17:12.747Z,100251.47
2023-04-20T16:20:15.397Z,100248.44
2023-04-20T16:23:18.362Z,100248.22
2023-04-20T16:26:21.723Z,100249.41
2023-04-20T16:29:24.549Z,100252.19
2023-04-20T16:32:27.940Z,100250.06
2023-04-20T16:35:30.758Z,100253.44
2023-04-20T16:38:33.471Z,100255.41
2023-04-20T16:41:43.074Z,100257.31
2023-04-20T16:44:45.722Z,100260.47
2023-04-20T16:47:48.671Z,100260.94
2023-04-20T16:50:51.239Z,100261.22
2023-04-20T16:53:54.295Z,100265.78
2023-04-20T16:56:57.496Z,100270.09
2023-04-20T17:00:00.712Z,100272.19
2023-04-20T17:03:06.908Z,100266.88
2023-04-20T17:06:09.911Z,100274.22
2023-04-20T17:09:12.684Z,100279.25
2023-04-20T17:12:15.585Z,100277.03
2023-04-20T17:15:18.387Z,100273.66
2023-04-20T17:18:21.334Z,100280.31
2023-04-20T17:21:24.272Z,100283.78
2023-04-20T17:24:27.227Z,100282.16
2023-04-20T17:27:29.701Z,100282.97
2023-04-20T17:30:32.688Z,100281.66
2023-04-20T17:33:35.502Z,100288.38
2023-04-20T17:36:38.154Z,100292.84
2023-04-20T17:39:41.140Z,100299.31
2023-04-20T17:42:44.201Z,100296.44
2023-04-20T17:45:50.462Z,100297.34
2023-04-20T17:48:53.828Z,100309.19
2023-04-20T17:51:56.545Z,100301.69
2023-04-20T17:55:02.143Z,100305.38
2023-04-20T17:58:04.668Z,100314.53
2023-04-20T18:01:07.692Z,100315.84
2023-04-20T18:04:10.931Z,100321.22
2023-04-20T18:07:15.818Z,100328.13
2023-04-20T18:10:19.089Z,100334.47
2023-04-20T18:13:21.897Z,100328.53
2023-04-20T18:16:25.116Z,100344.16
2023-04-20T18:19:28.072Z,100335.66
2023-04-20T18:22:30.508Z,100335.63
2023-04-20T18:25:33.524Z,100346.06
2023-04-20T18:28:36.165Z,100353.06
2023-04-20T18:31:39.443Z,100357.66
2023-04-20T18:34:44.020Z,100358.47
2023-04-20T18:37:47.022Z,100360.22
2023-04-20T18:40:49.989Z,100352.88
2023-04-20T18:43:54.239Z,100364.69
2023-04-20T18:46:57.009Z,100364.34
2023-04-20T18:49:59.839Z,100359.56
2023-04-20T18:53:05.016Z,100359.13
2023-04-20T18:56:10.100Z,100369.56
2023-04-20T18:59:12.979Z,100362.13
2023-04-20T19:02:16.640Z,100369.09
2023-04-20T19:05:19.510Z,100364.47
2023-04-20T19:08:23.338Z,100359.94
2023-04-20T19:11:26.320Z,100363.56
2023-04-20T19:14:29.534Z,100355.47
2023-04-20T19:17:32.416Z,100371.38
2023-04-20T19:20:35.830Z,100370.94
2023-04-20T19:23:38.556Z,100366.75
2023-04-20T19:26:41.936Z,100369.94
2023-04-20T19:29:44.760Z,100370.72
2023-04-20T19:32:49.330Z,100367.91
2023-04-20T19:35:52.470Z,100385.22
2023-04-20T19:38:55.403Z,100367.47
2023-04-20T19:41:58.504Z,100375.19
2023-04-20T19:45:01.473Z,100373.50
2023-04-20T19:48:05.965Z,100368.63
2023-04-20T19:51:10.146Z,100372.84
2023-04-20T19:54:12.767Z,100371.13
2023-04-20T19:57:15.693Z,100381.31
2023-04-20T20:00:18.501Z,100378.06
2023-04-20T20:03:21.612Z,100373.94
2023-04-20T20:06:24.720Z,100376.31
2023-04-20T20:09:27.433Z,100367.22
2023-04-20T20:12:30.676Z,100368.00
2023-04-20T20:15:33.686Z,100361.88
2023-04-20T20:18:37.039Z,100379.66
2023-04-20T20:21:39.992Z,100375.56
2023-04-20T20:24:44.696Z,100364.56
2023-04-20T20:27:48.198Z,100365.97
